Williamsburg, Nebraska
Current Conditions -  °F | °C
As of 5:55 PM on Friday 19 Dec 2014 (Local Time) from KHDE Reporting Station
Haze Haze  
Wind Chill: 29°   Ceiling: Unl
Heat Index: 29°   Visibility: 5mi
Dew Point: 27°   Wind: 3mph
Humidity: 94%   Direction: 200°SSW
Pressure: 30.04"   Gusts: NA
Location:  40.5759°N, 99.537°W
Report Text: KHDE 192355Z AUTO 20003KT 5SM BR CLR M02/M03 A3004 RMK AO2 T10171026 10003 21025
Loading
Personal Weather Stations






























Interactive Weather Map New forecast layout! Learn more

10-Day Weather Forecast

Advertisements
Track Severe Weather on mobile